Time;durP1;ratioP1;P1;durP2;ratioP2;P2;SDS_P1;SDS_P2;PMS_P1;PMS_P2;Temp;Humidity;BMP_temperature;BMP_pressure;BME280_temperature;BME280_humidity;BME280_pressure;Samples;Min_cycle;Max_cycle;Signal;HPM_P1;HPM_P2
2023/04/15 00:03:22;;;;;;;4.20;1.40;;;;;;;;;;10121185;28;20507;-76
2023/04/15 00:08:16;;;;;;;1.80;1.38;;;;;;;;;;10112379;28;20059;-76
2023/04/15 00:13:09;;;;;;;5.57;1.40;;;;;;;;;;10136514;28;20138;-73
2023/04/15 00:18:03;;;;;;;5.15;1.85;;;;;;;;;;10122368;28;20053;-73
2023/04/15 00:22:58;;;;;;;3.25;1.60;;;;;;;;;;10119053;28;20052;-73
2023/04/15 00:27:52;;;;;;;1.70;1.30;;;;;;;;;;10124226;28;20110;-73
2023/04/15 00:32:46;;;;;;;9.68;1.80;;;;;;;;;;10127805;28;20128;-73
2023/04/15 00:37:39;;;;;;;2.42;1.70;;;;;;;;;;10112664;28;20056;-72
2023/04/15 00:42:34;;;;;;;2.58;1.60;;;;;;;;;;10136726;28;20419;-72
2023/04/15 00:47:29;;;;;;;5.18;1.33;;;;;;;;;;10101457;28;20132;-72
2023/04/15 00:52:22;;;;;;;3.53;1.20;;;;;;;;;;10065832;28;20045;-72
2023/04/15 00:57:16;;;;;;;4.45;1.65;;;;;;;;;;10102786;28;20452;-72
2023/04/15 01:02:09;;;;;;;3.60;1.73;;;;;;;;;;10046215;28;20052;-74
2023/04/15 01:07:02;;;;;;;3.35;1.58;;;;;;;;;;10086231;28;20098;-74
2023/04/15 01:11:55;;;;;;;4.45;2.03;;;;;;;;;;10082115;28;20464;-74
2023/04/15 01:16:49;;;;;;;4.60;1.77;;;;;;;;;;10059526;28;20505;-75
2023/04/15 01:21:42;;;;;;;2.58;1.40;;;;;;;;;;10070939;28;20042;-77
2023/04/15 01:26:38;;;;;;;2.80;1.73;;;;;;;;;;10088647;28;20052;-76
2023/04/15 01:31:32;;;;;;;4.03;1.70;;;;;;;;;;10088788;28;20042;-76
2023/04/15 01:36:27;;;;;;;4.38;1.63;;;;;;;;;;10050153;28;20053;-77
2023/04/15 01:41:26;;;;;;;3.60;1.70;;;;;;;;;;10081771;28;20511;-76
2023/04/15 01:46:20;;;;;;;2.95;1.50;;;;;;;;;;10073854;28;20053;-76
2023/04/15 01:51:14;;;;;;;6.18;1.70;;;;;;;;;;10089861;28;20120;-76
2023/04/15 01:56:07;;;;;;;4.35;1.75;;;;;;;;;;10072127;28;20044;-76
2023/04/15 02:01:01;;;;;;;5.43;1.70;;;;;;;;;;10054046;28;20095;-76
2023/04/15 02:05:56;;;;;;;2.35;1.88;;;;;;;;;;10057845;28;20049;-76
2023/04/15 02:10:49;;;;;;;2.22;1.40;;;;;;;;;;10072165;28;20471;-76
2023/04/15 02:15:47;;;;;;;3.78;1.40;;;;;;;;;;10065739;28;20045;-76
2023/04/15 02:20:44;;;;;;;4.82;1.48;;;;;;;;;;10053813;28;20075;-76
2023/04/15 02:25:38;;;;;;;3.47;1.75;;;;;;;;;;10053757;28;20412;-75
2023/04/15 02:30:32;;;;;;;4.97;2.25;;;;;;;;;;10076107;28;20132;-76
2023/04/15 02:35:26;;;;;;;8.20;2.88;;;;;;;;;;10066024;28;20053;-76
2023/04/15 02:40:20;;;;;;;7.68;2.55;;;;;;;;;;10077040;28;20041;-76
2023/04/15 02:45:13;;;;;;;2.92;1.85;;;;;;;;;;10078968;28;20051;-76
2023/04/15 02:50:11;;;;;;;2.58;1.95;;;;;;;;;;10114509;28;20061;-76
2023/04/15 02:55:08;;;;;;;4.68;1.60;;;;;;;;;;10119269;28;20075;-76
2023/04/15 03:00:04;;;;;;;5.40;1.67;;;;;;;;;;10114963;28;20500;-77
2023/04/15 03:04:59;;;;;;;4.15;1.90;;;;;;;;;;10098860;28;20409;-75
2023/04/15 03:09:53;;;;;;;6.28;2.15;;;;;;;;;;10126049;28;20049;-75
2023/04/15 03:14:46;;;;;;;2.40;1.60;;;;;;;;;;10106011;28;20059;-76
2023/04/15 03:19:41;;;;;;;5.63;2.38;;;;;;;;;;10098404;28;20115;-77
2023/04/15 03:24:34;;;;;;;2.55;1.70;;;;;;;;;;10130025;28;20557;-76
2023/04/15 03:29:27;;;;;;;6.78;1.98;;;;;;;;;;10124873;28;20110;-86
2023/04/15 03:34:21;;;;;;;2.83;1.50;;;;;;;;;;10140505;28;20538;-77
2023/04/15 03:39:16;;;;;;;1.60;1.38;;;;;;;;;;10156472;28;20090;-76
2023/04/15 03:44:10;;;;;;;3.63;1.88;;;;;;;;;;10128780;28;20052;-79
2023/04/15 03:49:04;;;;;;;5.95;1.70;;;;;;;;;;10115916;28;20064;-79
2023/04/15 03:53:57;;;;;;;1.73;1.50;;;;;;;;;;10101152;28;20557;-78
2023/04/15 03:58:50;;;;;;;2.35;1.30;;;;;;;;;;10107709;28;20550;-78
2023/04/15 04:03:44;;;;;;;2.42;1.58;;;;;;;;;;10104270;28;20050;-86
2023/04/15 04:08:38;;;;;;;2.42;2.10;;;;;;;;;;10102629;28;20432;-84
2023/04/15 04:13:30;;;;;;;3.25;2.28;;;;;;;;;;10095907;28;20048;-76
2023/04/15 04:18:24;;;;;;;4.57;1.70;;;;;;;;;;10108272;28;20052;-76
2023/04/15 04:23:17;;;;;;;4.80;1.80;;;;;;;;;;10097772;28;20041;-78
2023/04/15 04:28:12;;;;;;;4.25;1.60;;;;;;;;;;10108588;28;20057;-79
2023/04/15 04:33:09;;;;;;;5.28;1.77;;;;;;;;;;10120361;28;20073;-78
2023/04/15 04:38:03;;;;;;;2.60;1.55;;;;;;;;;;10111355;28;20055;-78
2023/04/15 04:42:57;;;;;;;2.33;1.70;;;;;;;;;;10106645;28;20052;-78
2023/04/15 04:47:51;;;;;;;3.25;1.60;;;;;;;;;;10082784;28;20049;-78
2023/04/15 04:52:46;;;;;;;2.60;1.40;;;;;;;;;;10099655;28;20038;-78
2023/04/15 04:57:39;;;;;;;5.78;3.20;;;;;;;;;;10096966;28;20523;-77
2023/04/15 05:02:33;;;;;;;2.67;2.38;;;;;;;;;;10115098;28;20057;-78
2023/04/15 05:07:28;;;;;;;4.75;2.13;;;;;;;;;;10094161;28;20056;-77
2023/04/15 05:12:21;;;;;;;5.10;2.47;;;;;;;;;;10102912;28;20048;-78
2023/04/15 05:17:15;;;;;;;2.33;1.98;;;;;;;;;;10106063;28;20378;-78
2023/04/15 05:22:09;;;;;;;7.75;1.98;;;;;;;;;;10099325;28;20053;-78
2023/04/15 05:27:02;;;;;;;2.17;1.85;;;;;;;;;;10077006;28;20497;-79
2023/04/15 05:31:56;;;;;;;7.05;3.08;;;;;;;;;;10084735;28;20408;-84
2023/04/15 05:36:49;;;;;;;3.90;2.30;;;;;;;;;;10084965;28;20049;-80
2023/04/15 05:41:42;;;;;;;9.15;2.72;;;;;;;;;;10068920;28;20037;-80
2023/04/15 05:46:35;;;;;;;6.32;2.90;;;;;;;;;;10067064;28;20077;-76
2023/04/15 05:51:28;;;;;;;6.65;2.90;;;;;;;;;;10091748;28;20058;-76
2023/04/15 05:56:22;;;;;;;3.22;2.65;;;;;;;;;;10097861;28;20056;-76
2023/04/15 06:01:15;;;;;;;9.15;2.40;;;;;;;;;;10098291;28;20128;-74
2023/04/15 06:06:11;;;;;;;7.53;3.15;;;;;;;;;;10094635;28;20140;-76
2023/04/15 06:11:04;;;;;;;9.35;2.90;;;;;;;;;;10111249;28;20049;-76
2023/04/15 06:15:58;;;;;;;8.80;4.18;;;;;;;;;;10105544;28;20045;-76
2023/04/15 06:20:51;;;;;;;3.72;2.53;;;;;;;;;;10080078;28;20045;-78
2023/04/15 06:25:45;;;;;;;5.95;3.85;;;;;;;;;;10094135;28;20068;-78
2023/04/15 06:30:39;;;;;;;3.80;2.78;;;;;;;;;;10095594;28;20100;-77
2023/04/15 06:35:33;;;;;;;3.15;2.65;;;;;;;;;;10088758;28;20068;-75
2023/04/15 06:40:27;;;;;;;10.18;2.80;;;;;;;;;;10093985;28;20132;-73
2023/04/15 06:45:20;;;;;;;6.28;3.47;;;;;;;;;;10071880;28;20405;-73
2023/04/15 06:50:14;;;;;;;6.63;2.95;;;;;;;;;;10080850;28;20044;-79
2023/04/15 06:55:09;;;;;;;7.93;3.35;;;;;;;;;;10091469;28;20045;-73
2023/04/15 07:00:04;;;;;;;3.78;2.60;;;;;;;;;;10105139;28;20047;-71
2023/04/15 07:04:58;;;;;;;5.60;2.85;;;;;;;;;;10104631;28;20514;-83
2023/04/15 07:09:52;;;;;;;2.90;2.30;;;;;;;;;;10091441;28;20451;-75
2023/04/15 07:14:48;;;;;;;5.15;3.10;;;;;;;;;;10092771;28;20049;-72
2023/04/15 07:19:42;;;;;;;5.47;2.50;;;;;;;;;;10099658;28;20081;-79
2023/04/15 07:24:35;;;;;;;4.47;2.72;;;;;;;;;;10075119;28;20103;-78
2023/04/15 07:29:28;;;;;;;6.03;3.17;;;;;;;;;;10104729;28;20491;-80
2023/04/15 07:34:23;;;;;;;9.65;3.30;;;;;;;;;;10092502;28;20036;-77
2023/04/15 07:39:16;;;;;;;5.38;3.10;;;;;;;;;;10092875;28;20041;-78
2023/04/15 07:44:10;;;;;;;3.45;3.15;;;;;;;;;;10098030;28;20033;-83
2023/04/15 07:49:03;;;;;;;4.10;2.35;;;;;;;;;;10132666;28;20048;-83
2023/04/15 07:53:57;;;;;;;4.25;3.05;;;;;;;;;;10146474;28;20044;-73
2023/04/15 07:58:50;;;;;;;4.03;2.70;;;;;;;;;;10150369;28;20048;-70
2023/04/15 08:03:44;;;;;;;3.90;3.22;;;;;;;;;;10139671;28;20052;-67
2023/04/15 08:08:37;;;;;;;6.70;3.75;;;;;;;;;;10159349;28;20036;-68
2023/04/15 08:13:30;;;;;;;2.97;2.63;;;;;;;;;;10154747;28;20123;-70
2023/04/15 08:18:24;;;;;;;5.97;3.20;;;;;;;;;;10152375;28;20097;-72
2023/04/15 08:23:17;;;;;;;4.25;2.38;;;;;;;;;;10150967;28;20044;-70
2023/04/15 08:28:11;;;;;;;3.40;2.10;;;;;;;;;;10154142;28;20040;-71
2023/04/15 08:33:04;;;;;;;3.75;2.75;;;;;;;;;;10143878;28;20430;-71
2023/04/15 08:37:58;;;;;;;6.50;2.75;;;;;;;;;;10137089;28;20052;-71
2023/04/15 08:42:54;;;;;;;8.57;2.53;;;;;;;;;;10136558;28;20052;-73
2023/04/15 08:47:49;;;;;;;9.23;3.65;;;;;;;;;;10087586;28;20061;-73
2023/04/15 08:52:43;;;;;;;8.25;2.80;;;;;;;;;;10078482;28;20419;-73
2023/04/15 08:57:36;;;;;;;6.13;2.05;;;;;;;;;;10084841;28;20053;-73
2023/04/15 09:02:31;;;;;;;4.65;1.92;;;;;;;;;;10074588;28;20544;-73
2023/04/15 09:07:24;;;;;;;4.28;2.03;;;;;;;;;;10094646;28;20049;-72
2023/04/15 09:12:18;;;;;;;4.25;2.55;;;;;;;;;;10078077;28;20475;-71
2023/04/15 09:17:11;;;;;;;3.30;2.05;;;;;;;;;;10102354;28;20480;-73
2023/04/15 09:22:05;;;;;;;6.68;2.92;;;;;;;;;;10095808;28;20041;-75
2023/04/15 09:26:58;;;;;;;7.28;2.50;;;;;;;;;;10062759;28;20054;-70
2023/04/15 09:31:52;;;;;;;4.70;2.13;;;;;;;;;;10071086;28;20042;-71
2023/04/15 09:36:46;;;;;;;5.18;2.33;;;;;;;;;;10071446;28;20064;-70
2023/04/15 09:41:43;;;;;;;5.88;3.67;;;;;;;;;;10072312;28;20474;-69
2023/04/15 09:46:45;;;;;;;229.30;20.75;;;;;;;;;;10072492;28;20055;-66
2023/04/15 09:51:39;;;;;;;5.68;2.65;;;;;;;;;;10086021;28;20048;-66
2023/04/15 09:56:41;;;;;;;7.78;2.38;;;;;;;;;;10083027;28;20049;-67
2023/04/15 10:01:35;;;;;;;6.45;2.83;;;;;;;;;;10081734;28;20460;-65
2023/04/15 10:06:29;;;;;;;5.32;2.75;;;;;;;;;;10071455;28;20103;-66
2023/04/15 10:11:23;;;;;;;5.90;2.50;;;;;;;;;;10088496;28;20045;-66
2023/04/15 10:16:20;;;;;;;4.10;1.80;;;;;;;;;;10061710;28;20063;-65
2023/04/15 10:21:17;;;;;;;5.63;2.85;;;;;;;;;;10068320;28;20041;-66
2023/04/15 10:26:11;;;;;;;;;;;;;;;;;;10090437;28;20045;-65
2023/04/15 10:31:06;;;;;;;7.72;2.00;;;;;;;;;;10075686;28;19952;-66
2023/04/15 10:36:00;;;;;;;4.45;2.10;;;;;;;;;;10074036;28;20050;-65
2023/04/15 10:40:53;;;;;;;4.75;2.00;;;;;;;;;;10089958;28;20034;-64
2023/04/15 10:45:46;;;;;;;8.60;1.92;;;;;;;;;;10107503;28;20499;-63
2023/04/15 10:50:40;;;;;;;2.72;1.77;;;;;;;;;;10117032;28;20060;-64
2023/04/15 10:55:34;;;;;;;4.80;2.95;;;;;;;;;;10135877;28;20048;-65
2023/04/15 11:00:34;;;;;;;7.60;2.58;;;;;;;;;;10136149;28;20049;-65
2023/04/15 11:05:53;;;;;;;8.40;2.97;;;;;;;;;;10120584;28;20136;-65
2023/04/15 11:10:45;;;;;;;5.43;2.63;;;;;;;;;;10111195;28;20419;-66
2023/04/15 11:15:47;;;;;;;8.02;1.88;;;;;;;;;;10132448;28;20544;-66
2023/04/15 11:20:44;;;;;;;5.28;2.00;;;;;;;;;;10120606;28;20045;-66
2023/04/15 11:25:38;;;;;;;8.23;3.63;;;;;;;;;;10121381;28;20518;-66
2023/04/15 11:30:34;;;;;;;7.70;3.20;;;;;;;;;;10116996;28;20079;-66
2023/04/15 11:35:28;;;;;;;6.15;2.13;;;;;;;;;;10115674;28;20071;-66
2023/04/15 11:40:23;;;;;;;7.47;3.22;;;;;;;;;;10113283;28;20412;-65
2023/04/15 11:45:17;;;;;;;3.65;2.08;;;;;;;;;;10127737;28;20120;-66
2023/04/15 11:50:23;;;;;;;4.13;2.10;;;;;;;;;;10115758;28;20052;-67
2023/04/15 11:55:17;;;;;;;3.37;1.93;;;;;;;;;;10120485;28;20044;-68
2023/04/15 12:00:16;;;;;;;5.65;1.92;;;;;;;;;;10136387;28;20099;-67
2023/04/15 12:05:09;;;;;;;4.97;2.63;;;;;;;;;;10129421;28;20519;-67
2023/04/15 12:10:04;;;;;;;3.67;2.13;;;;;;;;;;10114916;28;20552;-67
2023/04/15 12:14:58;;;;;;;4.40;2.40;;;;;;;;;;10122724;28;20550;-64
2023/04/15 12:19:55;;;;;;;4.70;2.70;;;;;;;;;;10123296;28;20037;-64
2023/04/15 12:24:55;;;;;;;5.88;2.45;;;;;;;;;;10094009;28;20052;-64
2023/04/15 12:29:50;;;;;;;5.47;2.95;;;;;;;;;;10124227;28;20489;-64
2023/04/15 12:35:08;;;;;;;4.03;2.45;;;;;;;;;;10146652;28;20110;-64
2023/04/15 12:40:02;;;;;;;3.17;2.72;;;;;;;;;;10144814;28;20561;-66
2023/04/15 12:44:55;;;;;;;4.13;2.50;;;;;;;;;;10138325;28;20487;-65
2023/04/15 12:49:49;;;;;;;6.25;3.25;;;;;;;;;;10144658;28;20056;-65
2023/04/15 12:54:42;;;;;;;7.22;2.58;;;;;;;;;;10142573;28;20048;-63
2023/04/15 12:59:36;;;;;;;3.78;2.17;;;;;;;;;;10151361;28;20052;-65
2023/04/15 13:04:30;;;;;;;6.65;2.40;;;;;;;;;;10156059;28;20046;-64
2023/04/15 13:09:23;;;;;;;3.38;1.98;;;;;;;;;;10152334;28;20032;-64
2023/04/15 13:14:16;;;;;;;5.10;2.47;;;;;;;;;;10148590;28;20484;-65
2023/04/15 13:19:09;;;;;;;5.40;2.13;;;;;;;;;;10144482;28;20056;-65
2023/04/15 13:24:02;;;;;;;10.57;2.33;;;;;;;;;;10136638;28;20080;-65
2023/04/15 13:28:57;;;;;;;6.07;2.58;;;;;;;;;;10111996;28;20049;-65
2023/04/15 13:33:51;;;;;;;4.63;2.30;;;;;;;;;;10113238;28;20056;-65
2023/04/15 13:38:45;;;;;;;4.50;3.20;;;;;;;;;;10114903;28;20103;-66
2023/04/15 13:43:43;;;;;;;4.45;3.20;;;;;;;;;;10137217;28;20044;-66
2023/04/15 13:48:36;;;;;;;7.78;2.97;;;;;;;;;;10137832;28;20052;-67
2023/04/15 13:53:29;;;;;;;6.78;3.58;;;;;;;;;;10149052;28;20617;-68
2023/04/15 13:58:32;;;;;;;6.55;2.90;;;;;;;;;;10140669;28;20515;-66
2023/04/15 14:03:26;;;;;;;5.88;2.85;;;;;;;;;;10137079;28;20139;-67
2023/04/15 14:08:20;;;;;;;5.22;3.42;;;;;;;;;;10127555;28;20056;-67
2023/04/15 14:13:14;;;;;;;4.00;2.50;;;;;;;;;;10134720;28;20051;-68
2023/04/15 14:18:08;;;;;;;5.30;2.78;;;;;;;;;;10139747;28;20084;-68
2023/04/15 14:23:02;;;;;;;4.88;2.95;;;;;;;;;;10127310;28;20048;-68
2023/04/15 14:27:55;;;;;;;4.18;2.30;;;;;;;;;;10140282;28;20045;-66
2023/04/15 14:32:49;;;;;;;6.85;2.15;;;;;;;;;;10142314;28;20098;-68
2023/04/15 14:37:43;;;;;;;4.40;1.83;;;;;;;;;;10133134;28;20052;-67
2023/04/15 14:42:36;;;;;;;4.63;2.40;;;;;;;;;;10139794;28;20053;-68
2023/04/15 14:47:30;;;;;;;6.22;2.03;;;;;;;;;;10133070;28;20123;-66
2023/04/15 14:52:23;;;;;;;2.63;1.35;;;;;;;;;;10143096;28;20051;-67
2023/04/15 14:57:16;;;;;;;5.20;1.58;;;;;;;;;;10159739;28;20505;-67
2023/04/15 15:02:09;;;;;;;7.05;2.15;;;;;;;;;;10158694;28;20418;-68
2023/04/15 15:07:07;;;;;;;6.53;1.63;;;;;;;;;;10168610;28;20052;-68
2023/04/15 15:12:01;;;;;;;5.82;1.45;;;;;;;;;;10155952;28;20039;-68
2023/04/15 15:16:53;;;;;;;5.85;2.22;;;;;;;;;;10168080;28;20051;-68
2023/04/15 15:21:47;;;;;;;4.90;1.65;;;;;;;;;;10133853;28;20164;-68
2023/04/15 15:26:40;;;;;;;3.28;1.65;;;;;;;;;;10138843;28;20056;-67
2023/04/15 15:31:36;;;;;;;3.28;1.58;;;;;;;;;;10124283;28;20102;-68
2023/04/15 15:36:30;;;;;;;6.45;1.88;;;;;;;;;;10143377;28;20132;-65
2023/04/15 15:41:24;;;;;;;8.25;1.52;;;;;;;;;;10140058;28;20047;-68
2023/04/15 15:46:18;;;;;;;6.05;1.92;;;;;;;;;;10143246;28;20056;-67
2023/04/15 15:51:11;;;;;;;5.30;2.08;;;;;;;;;;10147358;28;20051;-67
2023/04/15 15:56:06;;;;;;;4.57;2.42;;;;;;;;;;10164225;28;20043;-67
2023/04/15 16:01:00;;;;;;;9.82;2.28;;;;;;;;;;10164914;28;20098;-67
2023/04/15 16:05:53;;;;;;;4.82;2.55;;;;;;;;;;10162764;28;20044;-67
2023/04/15 16:10:46;;;;;;;4.00;2.65;;;;;;;;;;10156050;28;20044;-67
2023/04/15 16:15:40;;;;;;;9.73;2.55;;;;;;;;;;10151644;28;20056;-66
2023/04/15 16:20:34;;;;;;;5.75;3.00;;;;;;;;;;10149927;28;20483;-69
2023/04/15 16:25:28;;;;;;;4.43;2.55;;;;;;;;;;10132479;28;20045;-66
2023/04/15 16:30:21;;;;;;;3.58;2.28;;;;;;;;;;10153522;28;20060;-66
2023/04/15 16:35:15;;;;;;;5.93;2.20;;;;;;;;;;10146850;28;20065;-66
2023/04/15 16:40:11;;;;;;;6.47;3.03;;;;;;;;;;10146521;28;20041;-66
2023/04/15 16:45:06;;;;;;;4.65;2.05;;;;;;;;;;10145043;28;20045;-66
2023/04/15 16:50:00;;;;;;;5.15;2.88;;;;;;;;;;10150373;28;20054;-67
2023/04/15 16:54:53;;;;;;;9.13;3.17;;;;;;;;;;10139654;28;20047;-66
2023/04/15 16:59:46;;;;;;;5.45;2.55;;;;;;;;;;10156620;28;20044;-66
2023/04/15 17:04:40;;;;;;;7.28;2.80;;;;;;;;;;10144914;28;20512;-65
2023/04/15 17:09:34;;;;;;;10.95;4.47;;;;;;;;;;10146277;28;20044;-65
2023/04/15 17:14:28;;;;;;;7.85;2.97;;;;;;;;;;10143847;28;20061;-66
2023/04/15 17:19:23;;;;;;;8.85;4.30;;;;;;;;;;10148732;28;20415;-65
2023/04/15 17:24:16;;;;;;;7.80;4.18;;;;;;;;;;10144061;28;20051;-64
2023/04/15 17:29:09;;;;;;;3.05;2.72;;;;;;;;;;10133955;28;20048;-65
2023/04/15 17:34:03;;;;;;;10.60;2.97;;;;;;;;;;10149476;28;20048;-65
2023/04/15 17:39:02;;;;;;;6.47;2.92;;;;;;;;;;10142818;28;20067;-65
2023/04/15 17:43:57;;;;;;;8.60;3.58;;;;;;;;;;10142264;28;20055;-65
2023/04/15 17:48:53;;;;;;;6.10;4.13;;;;;;;;;;10106258;28;20057;-65
2023/04/15 17:53:46;;;;;;;6.32;3.67;;;;;;;;;;10089512;28;20132;-65
2023/04/15 17:58:39;;;;;;;7.47;3.63;;;;;;;;;;10082811;28;20052;-66
2023/04/15 18:03:33;;;;;;;4.28;3.20;;;;;;;;;;10055454;28;20053;-64
2023/04/15 18:08:27;;;;;;;9.98;3.47;;;;;;;;;;10086518;28;20049;-65
2023/04/15 18:13:21;;;;;;;7.32;3.45;;;;;;;;;;10076447;28;20396;-64
2023/04/15 18:18:14;;;;;;;7.40;3.40;;;;;;;;;;10076621;28;20484;-66
2023/04/15 18:23:07;;;;;;;11.25;3.85;;;;;;;;;;10075588;28;20045;-66
2023/04/15 18:28:01;;;;;;;5.93;2.78;;;;;;;;;;10090414;28;20484;-66
2023/04/15 18:32:55;;;;;;;17.90;4.63;;;;;;;;;;10076158;28;20080;-65
2023/04/15 18:37:49;;;;;;;6.30;2.75;;;;;;;;;;10077150;28;20056;-67
2023/04/15 18:42:42;;;;;;;5.82;3.40;;;;;;;;;;10059756;28;20052;-67
2023/04/15 18:47:35;;;;;;;7.28;2.50;;;;;;;;;;10073536;28;20500;-65
2023/04/15 18:52:29;;;;;;;6.18;2.70;;;;;;;;;;10072526;28;20040;-66
2023/04/15 18:57:22;;;;;;;6.18;3.10;;;;;;;;;;10119423;28;20475;-65
2023/04/15 19:02:28;;;;;;;3.45;2.33;;;;;;;;;;10103222;28;20137;-64
2023/04/15 19:07:22;;;;;;;3.70;2.17;;;;;;;;;;10106557;28;20064;-67
2023/04/15 19:12:16;;;;;;;5.47;2.60;;;;;;;;;;10104619;28;20409;-68
2023/04/15 19:17:10;;;;;;;4.18;2.35;;;;;;;;;;10097962;28;20110;-67
2023/04/15 19:22:03;;;;;;;8.40;2.13;;;;;;;;;;10093966;28;20045;-68
2023/04/15 19:26:56;;;;;;;7.63;2.50;;;;;;;;;;10106922;28;20052;-67
2023/04/15 19:31:50;;;;;;;3.75;2.55;;;;;;;;;;10075720;28;20511;-67
2023/04/15 19:36:43;;;;;;;7.25;3.08;;;;;;;;;;10106971;28;20051;-67
2023/04/15 19:41:38;;;;;;;8.13;3.42;;;;;;;;;;10126029;28;20043;-68
2023/04/15 19:46:32;;;;;;;6.38;4.60;;;;;;;;;;10136409;28;20064;-68
2023/04/15 19:51:27;;;;;;;6.40;3.75;;;;;;;;;;10161580;28;20052;-68
2023/04/15 19:56:22;;;;;;;8.05;4.45;;;;;;;;;;10155571;28;20048;-68
2023/04/15 20:01:15;;;;;;;7.70;4.13;;;;;;;;;;10157795;28;20044;-65
2023/04/15 20:06:08;;;;;;;8.75;4.47;;;;;;;;;;10160295;28;20400;-66
2023/04/15 20:11:01;;;;;;;6.97;4.38;;;;;;;;;;10133835;28;20476;-67
2023/04/15 20:15:56;;;;;;;6.68;3.72;;;;;;;;;;10165696;28;20052;-66
2023/04/15 20:20:49;;;;;;;9.00;4.20;;;;;;;;;;10163250;28;20074;-65
2023/04/15 20:25:42;;;;;;;6.18;3.42;;;;;;;;;;10171258;28;20505;-65
2023/04/15 20:30:38;;;;;;;8.10;4.60;;;;;;;;;;10163151;28;20439;-66
2023/04/15 20:35:32;;;;;;;7.90;4.60;;;;;;;;;;10158916;28;20265;-67
2023/04/15 20:40:25;;;;;;;7.68;3.60;;;;;;;;;;10152594;28;20046;-66
2023/04/15 20:45:20;;;;;;;5.03;3.63;;;;;;;;;;10153312;28;20047;-65
2023/04/15 20:50:12;;;;;;;5.13;3.38;;;;;;;;;;10150578;28;20188;-65
2023/04/15 20:55:08;;;;;;;4.97;2.80;;;;;;;;;;10144140;28;20102;-69
2023/04/15 21:00:03;;;;;;;8.52;3.03;;;;;;;;;;10166897;28;20486;-66
2023/04/15 21:04:58;;;;;;;3.88;2.78;;;;;;;;;;10168299;28;20080;-67
2023/04/15 21:09:54;;;;;;;3.25;2.60;;;;;;;;;;10172035;28;20043;-68
2023/04/15 21:14:49;;;;;;;6.55;2.95;;;;;;;;;;10163870;28;20082;-68
2023/04/15 21:19:42;;;;;;;4.22;2.72;;;;;;;;;;10160868;28;20047;-67
2023/04/15 21:24:37;;;;;;;7.65;3.13;;;;;;;;;;10162148;28;20054;-68
2023/04/15 21:29:30;;;;;;;7.63;3.13;;;;;;;;;;10140888;28;20462;-66
2023/04/15 21:34:24;;;;;;;2.88;2.45;;;;;;;;;;10161570;28;20043;-68
2023/04/15 21:39:17;;;;;;;6.80;3.53;;;;;;;;;;10152036;28;20051;-68
2023/04/15 21:44:11;;;;;;;5.00;4.00;;;;;;;;;;10145799;28;20045;-68
2023/04/15 21:49:07;;;;;;;6.25;3.67;;;;;;;;;;10149880;28;20056;-69
2023/04/15 21:54:01;;;;;;;8.57;3.65;;;;;;;;;;10154120;28;20052;-66
2023/04/15 21:58:55;;;;;;;7.30;3.72;;;;;;;;;;10155237;28;20053;-67
2023/04/15 22:03:51;;;;;;;5.32;3.60;;;;;;;;;;10163950;28;20054;-65
2023/04/15 22:08:45;;;;;;;3.63;2.97;;;;;;;;;;10143760;28;20517;-66
2023/04/15 22:13:58;;;;;;;7.45;3.92;;;;;;;;;;10149302;28;20048;-68
2023/04/15 22:18:52;;;;;;;8.00;3.05;;;;;;;;;;10154698;28;20064;-68
2023/04/15 22:23:46;;;;;;;5.40;2.70;;;;;;;;;;10132613;28;20411;-66
2023/04/15 22:28:39;;;;;;;6.43;3.63;;;;;;;;;;10130508;28;20053;-67
2023/04/15 22:33:34;;;;;;;8.70;4.15;;;;;;;;;;10130628;28;20101;-69
2023/04/15 22:38:27;;;;;;;6.72;4.18;;;;;;;;;;10137043;28;20079;-69
2023/04/15 22:43:21;;;;;;;5.22;4.07;;;;;;;;;;10132330;28;20495;-68
2023/04/15 22:48:14;;;;;;;8.30;4.20;;;;;;;;;;10110562;28;20060;-69
2023/04/15 22:53:07;;;;;;;9.77;4.15;;;;;;;;;;10086939;28;20042;-69
2023/04/15 22:58:01;;;;;;;8.80;4.50;;;;;;;;;;10082541;28;20061;-69
2023/04/15 23:02:54;;;;;;;5.03;3.75;;;;;;;;;;10080491;28;21971;-69
2023/04/15 23:07:50;;;;;;;8.07;4.07;;;;;;;;;;10077037;28;20104;-69
2023/04/15 23:12:43;;;;;;;6.72;3.97;;;;;;;;;;10086868;28;20041;-68
2023/04/15 23:17:37;;;;;;;6.03;3.45;;;;;;;;;;10103465;28;20057;-68
2023/04/15 23:22:29;;;;;;;6.32;3.70;;;;;;;;;;10074822;28;20511;-68
2023/04/15 23:27:22;;;;;;;10.88;3.95;;;;;;;;;;10082490;28;20496;-69
2023/04/15 23:32:16;;;;;;;8.93;3.50;;;;;;;;;;10085706;28;20689;-67
2023/04/15 23:37:09;;;;;;;7.60;4.07;;;;;;;;;;10076073;28;20053;-69
2023/04/15 23:42:02;;;;;;;7.40;3.35;;;;;;;;;;10086287;28;20495;-69
2023/04/15 23:46:55;;;;;;;7.13;3.97;;;;;;;;;;10104854;28;20464;-69
2023/04/15 23:51:49;;;;;;;10.93;3.67;;;;;;;;;;10126318;28;20068;-69
2023/04/15 23:56:43;;;;;;;4.35;3.30;;;;;;;;;;10119236;28;20080;-69
